createdAt,value
2023-03-22T00:01:26.530Z,46.30
2023-03-22T00:03:54.506Z,39.00
2023-03-22T00:06:22.217Z,41.50
2023-03-22T00:08:51.780Z,43.40
2023-03-22T00:11:21.698Z,45.60
2023-03-22T00:13:49.335Z,39.80
2023-03-22T00:16:16.920Z,41.00
2023-03-22T00:18:44.644Z,37.30
2023-03-22T00:21:14.452Z,38.60
2023-03-22T00:23:42.488Z,39.00
2023-03-22T00:26:11.715Z,39.30
2023-03-22T00:28:39.740Z,38.00
2023-03-22T00:31:08.334Z,35.90
2023-03-22T00:33:36.484Z,33.10
2023-03-22T00:36:09.585Z,35.20
2023-03-22T00:38:45.331Z,37.10
2023-03-22T00:41:14.532Z,34.60
2023-03-22T00:43:42.504Z,37.60
2023-03-22T00:46:11.624Z,31.60
2023-03-22T00:48:39.502Z,35.20
2023-03-22T00:51:08.584Z,35.70
2023-03-22T00:53:36.737Z,36.90
2023-03-22T00:56:05.717Z,33.80
2023-03-22T00:58:33.325Z,38.20
2023-03-22T01:01:01.109Z,36.80
2023-03-22T01:03:28.720Z,35.10
2023-03-22T01:05:56.369Z,34.50
2023-03-22T01:08:24.435Z,34.80
2023-03-22T01:10:52.243Z,32.90
2023-03-22T01:13:19.856Z,36.30
2023-03-22T01:15:50.901Z,41.80
2023-03-22T01:18:18.914Z,36.50
2023-03-22T01:20:46.473Z,44.00
2023-03-22T01:23:14.048Z,40.30
2023-03-22T01:25:41.749Z,33.90
2023-03-22T01:28:09.430Z,34.40
2023-03-22T01:30:40.009Z,37.70
2023-03-22T01:33:08.056Z,38.30
2023-03-22T01:35:36.846Z,33.10
2023-03-22T01:38:05.017Z,33.00
2023-03-22T01:40:33.593Z,34.00
2023-03-22T01:43:01.203Z,37.00
2023-03-22T01:45:43.686Z,34.80
2023-03-22T01:48:26.170Z,38.30
2023-03-22T01:53:38.725Z,35.00
2023-03-22T01:56:07.259Z,35.40
2023-03-22T01:58:37.101Z,35.70
2023-03-22T02:01:07.419Z,36.30
2023-03-22T02:03:43.503Z,35.40
2023-03-22T02:06:11.117Z,32.30
2023-03-22T02:08:38.955Z,29.30
2023-03-22T02:11:07.292Z,27.90
2023-03-22T02:13:38.090Z,30.50
2023-03-22T02:16:22.586Z,37.90
2023-03-22T02:19:28.824Z,34.90
2023-03-22T02:22:05.069Z,30.20
2023-03-22T02:24:51.445Z,30.50
2023-03-22T02:27:36.926Z,33.00
2023-03-22T02:30:35.937Z,27.80
2023-03-22T02:33:06.306Z,32.10
2023-03-22T02:38:51.001Z,28.60
2023-03-22T02:41:53.383Z,33.70
2023-03-22T02:44:40.732Z,25.90
2023-03-22T02:47:11.133Z,35.30
2023-03-22T02:52:23.980Z,31.40
2023-03-22T02:55:07.316Z,37.70
2023-03-22T02:57:44.659Z,42.70
2023-03-22T03:00:14.754Z,41.90
2023-03-22T03:02:49.408Z,45.80
2023-03-22T03:05:19.125Z,38.10
2023-03-22T03:07:52.176Z,32.00
2023-03-22T03:10:20.768Z,13.00
2023-03-22T03:12:48.339Z,29.60
2023-03-22T03:15:21.214Z,32.40
2023-03-22T03:18:13.655Z,27.80
2023-03-22T03:21:00.299Z,27.30
2023-03-22T03:23:43.232Z,34.20
2023-03-22T03:26:14.541Z,32.40
2023-03-22T03:29:08.159Z,36.00
2023-03-22T03:31:40.518Z,30.20
2023-03-22T03:34:16.480Z,29.90
2023-03-22T03:36:53.995Z,30.60
2023-03-22T03:39:24.304Z,19.30
2023-03-22T03:41:55.141Z,24.10
2023-03-22T03:44:24.079Z,23.60
2023-03-22T03:46:53.989Z,25.00
2023-03-22T03:49:23.833Z,25.50
2023-03-22T03:51:54.630Z,26.30
2023-03-22T03:54:23.190Z,22.10
2023-03-22T03:56:50.796Z,27.80
2023-03-22T03:59:19.572Z,23.70
2023-03-22T04:01:47.703Z,26.90
2023-03-22T04:04:17.339Z,27.70
2023-03-22T04:06:44.975Z,27.70
2023-03-22T04:09:12.564Z,26.50
2023-03-22T04:11:40.111Z,28.40
2023-03-22T04:14:07.699Z,29.10
2023-03-22T04:16:35.291Z,36.00
2023-03-22T04:19:02.879Z,43.20
2023-03-22T04:21:30.417Z,40.80
2023-03-22T04:23:58.525Z,36.20
2023-03-22T04:26:26.786Z,38.70
2023-03-22T04:28:54.561Z,33.40
2023-03-22T04:31:22.182Z,36.30
2023-03-22T04:33:50.047Z,44.10
2023-03-22T04:36:17.624Z,39.70
2023-03-22T04:38:45.199Z,45.30
2023-03-22T04:41:12.879Z,45.10
2023-03-22T04:43:40.794Z,49.30
2023-03-22T04:46:09.648Z,44.40
2023-03-22T04:48:37.439Z,39.20
2023-03-22T04:51:06.229Z,41.80
2023-03-22T04:53:34.581Z,32.50
2023-03-22T04:56:02.132Z,26.00
2023-03-22T04:58:29.687Z,16.90
2023-03-22T05:00:57.232Z,31.60
2023-03-22T05:03:24.978Z,24.90
2023-03-22T05:05:55.294Z,25.30
2023-03-22T05:08:24.991Z,26.30
2023-03-22T05:10:54.143Z,20.00
2023-03-22T05:13:23.616Z,20.30
2023-03-22T05:15:51.702Z,21.80
2023-03-22T05:18:21.068Z,22.20
2023-03-22T05:20:48.677Z,23.00
2023-03-22T05:23:16.703Z,25.60
2023-03-22T05:25:44.480Z,29.30
2023-03-22T05:28:12.740Z,31.70
2023-03-22T05:30:42.344Z,33.50
2023-03-22T05:33:10.179Z,34.10
2023-03-22T05:35:41.351Z,32.20
2023-03-22T05:38:10.057Z,37.50
2023-03-22T05:40:38.159Z,35.30
2023-03-22T05:43:06.093Z,36.70
2023-03-22T05:45:36.166Z,36.10
2023-03-22T05:50:31.551Z,33.80
2023-03-22T05:52:59.539Z,36.20
2023-03-22T05:55:27.503Z,37.90
2023-03-22T05:57:55.070Z,36.60
2023-03-22T06:00:22.867Z,33.80
2023-03-22T06:02:51.334Z,35.40
2023-03-22T06:05:19.101Z,36.00
2023-03-22T06:07:46.660Z,35.90
2023-03-22T06:10:15.273Z,36.70
2023-03-22T06:12:42.866Z,33.00
2023-03-22T06:15:11.613Z,26.90
2023-03-22T06:17:39.281Z,26.70
2023-03-22T06:20:07.899Z,29.10
2023-03-22T06:22:35.863Z,25.80
2023-03-22T06:25:03.890Z,22.40
2023-03-22T06:27:31.504Z,27.20
2023-03-22T06:29:59.119Z,29.10
2023-03-22T06:32:26.976Z,26.90
2023-03-22T06:34:54.846Z,27.20
2023-03-22T06:37:23.832Z,32.30
2023-03-22T06:39:51.618Z,33.10
2023-03-22T06:42:19.278Z,35.30
2023-03-22T06:44:46.984Z,34.40
2023-03-22T06:47:14.567Z,31.90
2023-03-22T06:49:42.146Z,32.00
2023-03-22T06:52:09.708Z,31.30
2023-03-22T06:54:37.262Z,30.50
2023-03-22T06:57:05.158Z,27.70
2023-03-22T06:59:32.745Z,27.40
2023-03-22T07:02:00.346Z,31.70
2023-03-22T07:04:27.939Z,29.40
2023-03-22T07:06:55.856Z,29.30
2023-03-22T07:09:23.459Z,28.60
2023-03-22T07:11:51.064Z,26.80
2023-03-22T07:14:18.800Z,26.90
2023-03-22T07:16:46.365Z,24.50
2023-03-22T07:19:14.049Z,25.40
2023-03-22T07:21:41.625Z,25.80
2023-03-22T07:24:09.216Z,23.00
2023-03-22T07:26:38.200Z,21.50
2023-03-22T07:29:05.824Z,22.00
2023-03-22T07:31:34.157Z,20.90
2023-03-22T07:34:03.410Z,20.20
2023-03-22T07:36:31.118Z,19.90
2023-03-22T07:38:58.934Z,20.90
2023-03-22T07:41:26.623Z,19.50
2023-03-22T07:44:00.210Z,21.10
2023-03-22T07:46:35.488Z,19.40
2023-03-22T07:49:03.138Z,20.70
2023-03-22T07:51:30.689Z,19.20
2023-03-22T07:53:58.260Z,20.50
2023-03-22T07:56:25.872Z,19.30
2023-03-22T07:58:53.753Z,17.70
2023-03-22T08:01:21.354Z,19.00
2023-03-22T08:03:48.936Z,16.30
2023-03-22T08:06:16.978Z,19.40
2023-03-22T08:08:44.941Z,18.60
2023-03-22T08:11:13.147Z,18.20
2023-03-22T08:13:40.975Z,19.70
2023-03-22T08:16:08.771Z,18.20
2023-03-22T08:18:36.388Z,17.40
2023-03-22T08:21:04.253Z,17.40
2023-03-22T08:23:41.541Z,17.80
2023-03-22T08:26:11.030Z,16.20
2023-03-22T08:28:38.810Z,16.40
2023-03-22T08:31:13.765Z,16.60
2023-03-22T08:33:42.778Z,18.20
2023-03-22T08:36:13.530Z,18.00
2023-03-22T08:38:41.082Z,16.70
2023-03-22T08:41:09.008Z,17.00
2023-03-22T08:43:36.590Z,15.50
2023-03-22T08:46:04.404Z,19.50
2023-03-22T08:48:31.976Z,15.80
2023-03-22T08:51:00.603Z,17.40
2023-03-22T08:53:28.388Z,14.50
2023-03-22T08:55:56.083Z,15.20
2023-03-22T08:58:24.025Z,15.90
2023-03-22T09:00:51.966Z,13.50
2023-03-22T09:03:19.815Z,14.20
2023-03-22T09:05:47.376Z,14.60
2023-03-22T09:08:19.075Z,14.30
2023-03-22T09:10:48.173Z,14.40
2023-03-22T09:13:15.721Z,15.00
2023-03-22T09:15:46.988Z,14.30
2023-03-22T09:18:15.150Z,15.70
2023-03-22T09:20:44.236Z,14.70
2023-03-22T09:23:14.864Z,14.50
2023-03-22T09:25:47.260Z,15.10
2023-03-22T09:28:15.879Z,13.90
2023-03-22T09:30:43.641Z,12.80
2023-03-22T09:33:11.543Z,12.20
2023-03-22T09:35:43.412Z,11.60
2023-03-22T09:38:11.823Z,12.80
2023-03-22T09:40:50.409Z,10.70
2023-03-22T09:43:19.445Z,11.70
2023-03-22T09:45:50.116Z,12.30
2023-03-22T09:48:34.024Z,12.70
2023-03-22T09:51:04.537Z,12.10
2023-03-22T09:53:32.694Z,9.90
2023-03-22T09:56:14.133Z,11.10
2023-03-22T09:58:56.261Z,10.00
2023-03-22T10:01:40.415Z,10.60
2023-03-22T10:04:29.808Z,10.60
2023-03-22T10:07:11.540Z,10.00
2023-03-22T10:09:44.780Z,10.80
2023-03-22T10:12:38.248Z,11.20
2023-03-22T10:15:13.488Z,9.80
2023-03-22T10:17:46.444Z,12.50
2023-03-22T10:20:24.298Z,13.10
2023-03-22T10:22:53.969Z,11.80
2023-03-22T10:25:30.894Z,14.30
2023-03-22T10:27:59.042Z,13.70
2023-03-22T10:30:34.015Z,14.50
2023-03-22T10:33:04.630Z,14.20
2023-03-22T10:35:32.485Z,16.00
2023-03-22T10:38:03.985Z,12.50
2023-03-22T10:40:34.299Z,12.70
2023-03-22T10:43:38.083Z,15.50
2023-03-22T10:46:13.089Z,11.40
2023-03-22T10:48:51.448Z,12.50
2023-03-22T10:51:30.264Z,13.20
2023-03-22T10:53:58.971Z,13.00
2023-03-22T10:56:26.917Z,13.30
2023-03-22T10:58:56.158Z,14.40
2023-03-22T11:01:29.200Z,12.50
2023-03-22T11:04:06.982Z,15.00
2023-03-22T11:06:40.164Z,15.00
2023-03-22T11:09:13.720Z,11.70
2023-03-22T11:12:00.676Z,11.70
2023-03-22T11:14:34.658Z,12.70
2023-03-22T11:17:11.331Z,11.80
2023-03-22T11:19:41.746Z,14.60
2023-03-22T11:22:33.813Z,14.30
2023-03-22T11:25:03.423Z,14.60
2023-03-22T11:27:33.371Z,11.70
2023-03-22T11:30:22.844Z,13.00
2023-03-22T11:33:00.724Z,10.70
2023-03-22T11:35:30.214Z,11.00
2023-03-22T11:37:58.329Z,9.80
2023-03-22T11:40:29.781Z,11.10
2023-03-22T11:43:18.820Z,10.60
2023-03-22T11:45:49.488Z,9.00
2023-03-22T11:48:29.194Z,8.60
2023-03-22T11:51:12.621Z,7.90
2023-03-22T11:53:47.097Z,7.00
2023-03-22T11:56:24.397Z,7.00
2023-03-22T11:59:03.021Z,11.50
2023-03-22T12:01:59.502Z,7.90
2023-03-22T12:04:31.321Z,9.40
2023-03-22T12:07:03.359Z,8.00
2023-03-22T12:09:49.151Z,6.60
2023-03-22T12:12:22.056Z,7.10
2023-03-22T12:14:57.459Z,6.30
2023-03-22T12:17:28.473Z,5.70
2023-03-22T12:20:18.344Z,6.70
2023-03-22T12:22:52.047Z,5.80
2023-03-22T12:25:24.973Z,4.00
2023-03-22T12:28:04.056Z,4.80
2023-03-22T12:30:38.282Z,5.40
2023-03-22T12:33:12.041Z,4.60
2023-03-22T12:35:44.787Z,5.30
2023-03-22T12:38:44.870Z,4.70
2023-03-22T12:41:17.045Z,3.50
2023-03-22T12:43:52.281Z,3.30
2023-03-22T12:46:24.882Z,3.60
2023-03-22T12:49:04.997Z,3.60
2023-03-22T12:51:32.866Z,3.70
2023-03-22T12:54:01.938Z,3.70
2023-03-22T12:56:38.663Z,3.90
2023-03-22T12:59:12.979Z,4.00
2023-03-22T13:01:54.745Z,4.20
2023-03-22T13:04:37.303Z,4.50
2023-03-22T13:07:13.929Z,5.10
2023-03-22T13:09:49.933Z,5.00
2023-03-22T13:12:17.491Z,4.20
2023-03-22T13:14:51.162Z,3.60
2023-03-22T13:17:25.422Z,4.50
2023-03-22T13:20:05.644Z,4.50
2023-03-22T13:22:36.035Z,3.80
2023-03-22T13:25:09.723Z,3.50
2023-03-22T13:28:35.845Z,4.40
2023-03-22T13:31:05.762Z,4.50
2023-03-22T13:33:36.688Z,4.00
2023-03-22T13:36:23.373Z,3.10
2023-03-22T13:38:56.978Z,4.00
2023-03-22T13:41:31.012Z,4.30
2023-03-22T13:44:01.382Z,4.00
2023-03-22T13:46:37.965Z,3.80
2023-03-22T13:49:30.772Z,4.40
2023-03-22T13:52:07.078Z,2.90
2023-03-22T13:54:49.374Z,4.20
2023-03-22T13:57:57.620Z,3.90
2023-03-22T14:00:31.350Z,4.80
2023-03-22T14:03:07.683Z,4.10
2023-03-22T14:05:37.221Z,4.30
2023-03-22T14:08:05.489Z,4.30
2023-03-22T14:10:41.558Z,4.10
2023-03-22T14:13:28.308Z,5.30
2023-03-22T14:16:02.506Z,4.90
2023-03-22T14:18:32.401Z,5.00
2023-03-22T14:21:06.581Z,5.30
